TimeEDT,TemperatureF,Dew PointF,Humidity,Sea Level PressureIn,VisibilityMPH,Wind Direction,Wind SpeedMPH,Gust SpeedMPH,PrecipitationIn,Events,Conditions,WindDirDegrees,DateUTC
12:51 AM,50.0,41.0,71,29.81,10.0,NW,19.6,27.6,N/A,,Overcast,320,2012-10-10 04:51:00
12:53 AM,48.9,39.9,71,29.81,10.0,NW,18.4,27.6,N/A,,Overcast,320,2012-10-10 04:53:00
1:12 AM,46.4,39.2,76,29.82,10.0,NW,19.6,25.3,N/A,,Overcast,310,2012-10-10 05:12:00
1:53 AM,44.1,41.0,89,29.84,7.0,WNW,12.7,-,0.00,Rain,Rain,290,2012-10-10 05:53:00
2:09 AM,44.6,41.0,87,29.84,7.0,West,8.1,-,0.03,Rain,Light Rain,270,2012-10-10 06:09:00
2:53 AM,43.0,39.9,89,29.86,7.0,West,10.4,-,0.08,Rain,Light Rain,270,2012-10-10 06:53:00
3:21 AM,42.8,39.2,87,29.85,8.0,West,10.4,-,0.03,Rain,Light Rain,270,2012-10-10 07:21:00
3:53 AM,42.1,39.0,89,29.86,10.0,West,6.9,-,0.06,Rain,Light Rain,270,2012-10-10 07:53:00
4:29 AM,41.0,39.2,93,29.85,10.0,WSW,8.1,-,0.01,Rain,Light Rain,250,2012-10-10 08:29:00
4:37 AM,41.0,39.2,93,29.85,10.0,West,10.4,-,0.01,Rain,Light Rain,270,2012-10-10 08:37:00
4:53 AM,41.0,37.9,89,29.86,10.0,West,8.1,-,0.01,Rain,Light Rain,270,2012-10-10 08:53:00
5:11 AM,41.0,39.2,93,29.84,10.0,West,5.8,-,0.00,,Overcast,270,2012-10-10 09:11:00
5:53 AM,41.0,39.0,93,29.86,10.0,WSW,6.9,-,0.00,,Overcast,240,2012-10-10 09:53:00
6:21 AM,41.0,37.4,87,29.85,10.0,WSW,9.2,-,N/A,,Overcast,250,2012-10-10 10:21:00
6:53 AM,41.0,37.9,89,29.88,10.0,WSW,8.1,-,N/A,,Overcast,250,2012-10-10 10:53:00
7:38 AM,41.0,37.4,87,29.87,10.0,WSW,6.9,-,N/A,,Overcast,250,2012-10-10 11:38:00
7:53 AM,41.0,37.9,89,29.89,10.0,WSW,8.1,-,N/A,,Overcast,250,2012-10-10 11:53:00
8:53 AM,42.1,37.9,85,29.91,10.0,WSW,10.4,-,N/A,,Mostly Cloudy,250,2012-10-10 12:53:00
9:53 AM,44.1,39.0,82,29.93,10.0,West,11.5,-,N/A,,Mostly Cloudy,280,2012-10-10 13:53:00
10:26 AM,44.6,37.4,76,29.93,10.0,WNW,15.0,21.9,N/A,,Overcast,300,2012-10-10 14:26:00
10:53 AM,45.0,37.0,74,29.95,10.0,West,15.0,-,N/A,,Overcast,280,2012-10-10 14:53:00
11:11 AM,44.6,35.6,71,29.94,10.0,WNW,12.7,-,N/A,,Overcast,290,2012-10-10 15:11:00
11:53 AM,44.1,36.0,73,29.96,10.0,WNW,9.2,-,N/A,,Overcast,300,2012-10-10 15:53:00
12:26 PM,44.6,35.6,71,29.96,10.0,WNW,10.4,-,0.00,Rain,Light Rain,300,2012-10-10 16:26:00
12:38 PM,42.8,35.6,76,29.97,7.0,WNW,17.3,24.2,0.00,Rain,Small Hail,300,2012-10-10 16:38:00
12:49 PM,41.0,37.4,87,29.97,5.0,WNW,8.1,26.5,0.02,Rain,Light Rain,300,2012-10-10 16:49:00
12:53 PM,41.0,36.0,82,29.99,10.0,WNW,9.2,-,0.02,Rain,Light Rain,290,2012-10-10 16:53:00
1:53 PM,43.0,34.0,71,29.99,10.0,West,19.6,27.6,0.01,,Overcast,280,2012-10-10 17:53:00
2:53 PM,43.0,30.9,62,30.01,10.0,West,15.0,21.9,0.00,,Overcast,270,2012-10-10 18:53:00
3:53 PM,44.1,27.0,51,30.03,10.0,West,20.7,28.8,N/A,,Overcast,280,2012-10-10 19:53:00
4:53 PM,43.0,27.0,53,30.05,10.0,West,15.0,31.1,N/A,,Overcast,280,2012-10-10 20:53:00
5:53 PM,42.1,27.0,55,30.07,10.0,WNW,15.0,-,N/A,,Mostly Cloudy,290,2012-10-10 21:53:00
6:53 PM,41.0,28.0,60,30.10,10.0,WNW,10.4,-,N/A,,Mostly Cloudy,290,2012-10-10 22:53:00
7:53 PM,41.0,27.0,57,30.13,10.0,West,10.4,-,N/A,,Overcast,280,2012-10-10 23:53:00
8:53 PM,39.9,27.0,60,30.15,10.0,West,5.8,-,N/A,,Overcast,270,2012-10-11 00:53:00
9:53 PM,37.0,28.0,70,30.16,10.0,WSW,4.6,-,N/A,,Mostly Cloudy,240,2012-10-11 01:53:00
10:53 PM,37.9,28.9,70,30.16,10.0,SW,4.6,-,N/A,,Mostly Cloudy,220,2012-10-11 02:53:00
11:53 PM,36.0,28.0,73,30.17,10.0,Calm,Calm,-,N/A,,Scattered Clouds,0,2012-10-11 03:53:00